Sticklerstown, Pennsylvania
Current Conditions -  °F | °C
As of 10:20 PM on Monday 26 Jan 2015 (Local Time) from KLNS Reporting Station
Overcast Overcast  
Wind Chill: 14°   Ceiling: 2000
Heat Index: 24°   Visibility: 10mi
Dew Point: 18°   Wind: 10mph
Humidity: 77%   Direction: 30°NNE
Pressure: 29.75"   Gusts: NA
Location:  40.3035°N, 76.254°W
Report Text: KLNS 270320Z 03009KT 10SM BKN020 BKN044 OVC055 M04/M08 A2975 RMK AO2 T10441078
Loading
Personal Weather Stations






























Interactive Weather Map New forecast layout! Learn more

10-Day Weather Forecast

Advertisements
Track Severe Weather on mobile